Time;durP1;ratioP1;P1;durP2;ratioP2;P2;SDS_P1;SDS_P2;PMS_P1;PMS_P2;Temp;Humidity;BMP_temperature;BMP_pressure;BME280_temperature;BME280_humidity;BME280_pressure;Samples;Min_cycle;Max_cycle;Signal;HPM_P1;HPM_P2
2024/01/31 00:01:41;;;;;;;;;7.00;7.00;;;;;10.44;56.12;103141.38;4994845;28;45728;-40
2024/01/31 00:04:06;;;;;;;;;7.00;7.00;;;;;10.39;56.13;103143.44;4994977;28;45345;-41
2024/01/31 00:06:32;;;;;;;;;11.67;7.00;;;;;10.32;56.45;103132.28;4994600;28;46087;-40
2024/01/31 00:08:57;;;;;;;;;11.67;9.00;;;;;10.36;56.43;103146.25;4994534;28;45270;-39
2024/01/31 00:11:25;;;;;;;;;8.67;8.00;;;;;10.34;56.15;103134.88;4994787;28;45683;-39
2024/01/31 00:13:51;;;;;;;;;11.33;10.00;;;;;10.31;56.42;103135.88;4994914;28;45372;-39
2024/01/31 00:16:17;;;;;;;;;12.00;10.33;;;;;10.28;57.00;103132.53;4994407;28;46226;-40
2024/01/31 00:18:42;;;;;;;;;8.00;8.00;;;;;10.30;56.58;103139.50;4994335;28;45488;-39
2024/01/31 00:21:07;;;;;;;;;6.33;6.00;;;;;10.26;56.43;103135.28;4994596;28;45389;-40
2024/01/31 00:23:32;;;;;;;;;10.33;10.33;;;;;10.24;56.41;103130.06;4994472;28;45388;-39
2024/01/31 00:25:58;;;;;;;;;9.00;7.67;;;;;10.29;56.48;103145.78;4992987;28;45401;-39
2024/01/31 00:28:24;;;;;;;;;13.00;9.33;;;;;10.28;56.52;103141.41;4994598;28;45346;-38
2024/01/31 00:30:49;;;;;;;;;15.00;11.00;;;;;10.26;56.53;103145.06;4994434;28;45444;-40
2024/01/31 00:33:14;;;;;;;;;7.67;7.00;;;;;10.28;56.35;103143.19;4994364;28;45430;-40
2024/01/31 00:35:40;;;;;;;;;12.00;7.00;;;;;10.27;56.61;103146.78;4994067;28;46569;-39
2024/01/31 00:38:05;;;;;;;;;6.00;6.00;;;;;10.30;56.22;103141.31;4994260;28;45288;-40
2024/01/31 00:40:30;;;;;;;;;10.67;7.33;;;;;10.30;56.68;103136.84;4994472;28;45330;-40
2024/01/31 00:42:55;;;;;;;;;7.00;7.00;;;;;10.31;56.55;103137.69;4994630;28;45349;-41
2024/01/31 00:45:22;;;;;;;;;8.00;7.33;;;;;10.26;56.69;103129.13;4994205;28;46387;-40
2024/01/31 00:47:48;;;;;;;;;9.67;9.00;;;;;10.29;56.56;103140.44;4993607;28;45435;-40
2024/01/31 00:50:13;;;;;;;;;9.33;7.00;;;;;10.26;56.83;103123.78;4994142;28;46638;-40
2024/01/31 00:52:41;;;;;;;;;12.00;8.00;;;;;10.25;57.02;103120.28;4994322;28;45325;-44
2024/01/31 00:55:07;;;;;;;;;11.00;7.00;;;;;10.23;56.63;103114.13;4993976;28;45392;-40
2024/01/31 00:57:33;;;;;;;;;10.33;6.67;;;;;10.22;56.89;103121.28;4993896;28;45385;-38
2024/01/31 00:59:58;;;;;;;;;9.00;8.00;;;;;10.20;57.04;103117.00;4994282;28;45404;-39
2024/01/31 01:02:24;;;;;;;;;8.00;7.67;;;;;10.19;57.00;103113.44;4994329;28;45261;-39
2024/01/31 01:04:49;;;;;;;;;12.67;9.67;;;;;10.15;56.58;103119.88;4994255;28;45801;-39
2024/01/31 01:07:14;;;;;;;;;11.67;8.00;;;;;10.05;57.02;103108.06;4993513;28;47948;-40
2024/01/31 01:09:40;;;;;;;;;10.00;9.33;;;;;9.96;57.44;103090.81;4994107;28;45412;-38
2024/01/31 01:12:05;;;;;;;;;11.33;10.00;;;;;10.04;56.96;103102.84;4994152;28;45318;-40
2024/01/31 01:14:30;;;;;;;;;8.00;6.00;;;;;10.06;57.04;103117.75;4993761;28;46154;-38
2024/01/31 01:16:56;;;;;;;;;8.00;7.67;;;;;10.06;57.17;103123.06;4993935;28;45348;-40
2024/01/31 01:19:21;;;;;;;;;10.00;10.00;;;;;10.00;57.17;103108.31;4993788;28;45522;-41
2024/01/31 01:21:47;;;;;;;;;8.00;6.33;;;;;10.01;57.03;103109.16;4993962;28;45433;-40
2024/01/31 01:24:12;;;;;;;;;12.33;8.00;;;;;9.98;57.45;103110.19;4993703;28;46938;-40
2024/01/31 01:26:41;;;;;;;;;17.33;11.00;;;;;10.00;57.54;103113.63;4993729;28;45349;-39
2024/01/31 01:29:07;;;;;;;;;13.00;10.00;;;;;9.98;57.08;103112.00;4993717;27;45449;-39
2024/01/31 01:31:33;;;;;;;;;12.67;12.00;;;;;9.98;57.40;103109.34;4993613;27;45306;-39
2024/01/31 01:33:59;;;;;;;;;5.00;4.33;;;;;9.97;57.98;103103.16;4993259;28;45508;-40
2024/01/31 01:36:25;;;;;;;;;8.33;8.33;;;;;9.88;57.75;103093.03;4996189;28;45678;-38
2024/01/31 01:38:50;;;;;;;;;13.00;13.00;;;;;9.94;57.68;103102.47;4996738;28;45463;-40
2024/01/31 01:41:15;;;;;;;;;14.00;10.00;;;;;9.92;57.79;103102.56;4996653;28;45331;-40
2024/01/31 01:43:42;;;;;;;;;12.67;11.00;;;;;9.88;58.32;103095.69;5011630;28;47136;-40
2024/01/31 01:46:10;;;;;;;;;10.00;9.33;;;;;9.85;58.23;103095.00;4996302;28;45346;-40
2024/01/31 01:48:36;;;;;;;;;11.67;11.67;;;;;9.82;58.37;103100.47;4994963;28;45314;-39
2024/01/31 01:51:02;;;;;;;;;11.67;10.00;;;;;9.84;58.22;103101.28;4996403;28;45303;-39
2024/01/31 01:53:29;;;;;;;;;11.33;11.00;;;;;9.80;58.31;103100.56;4996073;28;47330;-40
2024/01/31 01:55:55;;;;;;;;;17.67;13.67;;;;;9.78;58.45;103109.59;4996286;28;45392;-40
2024/01/31 01:58:20;;;;;;;;;17.00;15.33;;;;;9.77;58.25;103114.03;4996306;28;45308;-40
2024/01/31 02:00:46;;;;;;;;;24.00;19.00;;;;;9.74;58.67;103111.56;4996501;28;45365;-40
2024/01/31 02:03:13;;;;;;;;;16.67;13.00;;;;;9.72;58.59;103108.09;4996107;28;45384;-39
2024/01/31 02:05:39;;;;;;;;;14.00;11.33;;;;;9.78;58.59;103114.91;4995857;28;45477;-40
2024/01/31 02:08:05;;;;;;;;;12.67;12.67;;;;;9.73;58.26;103093.88;4996109;28;45443;-40
2024/01/31 02:10:30;;;;;;;;;16.00;13.33;;;;;9.74;58.89;103100.94;4996194;28;45399;-39
2024/01/31 02:12:56;;;;;;;;;17.00;12.00;;;;;9.77;58.44;103099.88;4995974;28;46167;-39
2024/01/31 02:15:21;;;;;;;;;18.33;12.33;;;;;9.75;58.51;103094.66;4995960;28;45407;-39
2024/01/31 02:17:46;;;;;;;;;12.33;12.00;;;;;9.79;58.37;103090.91;4996009;28;45553;-40
2024/01/31 02:20:15;;;;;;;;;12.00;11.67;;;;;9.79;58.22;103096.22;4996086;28;45382;-39
2024/01/31 02:22:45;;;;;;;;;11.00;10.00;;;;;9.75;58.50;103086.69;4994478;28;46582;-40
2024/01/31 02:25:14;;;;;;;;;15.00;12.00;;;;;9.75;58.23;103092.00;4995729;28;45417;-41
2024/01/31 02:27:40;;;;;;;;;14.00;13.00;;;;;9.77;57.93;103091.91;4996891;28;45409;-41
2024/01/31 02:30:07;;;;;;;;;18.33;13.67;;;;;9.67;58.80;103081.78;4996050;28;45348;-39
2024/01/31 02:32:32;;;;;;;;;11.00;9.67;;;;;9.72;58.43;103090.34;4995722;28;45630;-41
2024/01/31 02:34:58;;;;;;;;;10.33;8.33;;;;;9.73;58.54;103099.19;4995567;28;45489;-40
2024/01/31 02:37:23;;;;;;;;;14.00;11.00;;;;;9.71;58.50;103095.78;4995941;28;45410;-37
2024/01/31 02:39:49;;;;;;;;;16.33;12.00;;;;;9.61;58.64;103083.94;4995828;28;45496;-39
2024/01/31 02:42:14;;;;;;;;;11.00;9.33;;;;;9.67;59.10;103086.25;4995509;28;45344;-40
2024/01/31 02:44:40;;;;;;;;;15.67;11.67;;;;;9.68;58.74;103101.25;4995336;28;45576;-39
2024/01/31 02:47:05;;;;;;;;;16.67;11.00;;;;;9.64;58.60;103105.00;4995585;28;45345;-39
2024/01/31 02:49:30;;;;;;;;;14.33;11.33;;;;;9.64;59.33;103105.88;4995338;28;45567;-39
2024/01/31 02:51:56;;;;;;;;;12.00;11.33;;;;;9.60;59.16;103103.44;4995061;28;47146;-40
2024/01/31 02:54:21;;;;;;;;;17.67;14.00;;;;;9.52;59.08;103081.75;4995415;28;45416;-40
2024/01/31 02:56:46;;;;;;;;;11.33;9.00;;;;;9.56;58.79;103096.59;4995475;28;45311;-39
2024/01/31 02:59:12;;;;;;;;;15.00;14.00;;;;;9.59;59.13;103102.59;4995499;28;45541;-37
2024/01/31 03:01:45;;;;;;;;;10.00;8.00;;;;;9.56;58.63;103099.25;4995962;28;46061;-38
2024/01/31 03:04:10;;;;;;;;;15.33;11.00;;;;;9.61;58.71;103115.81;4994011;28;45359;-38
2024/01/31 03:06:36;;;;;;;;;11.00;8.67;;;;;9.56;58.34;103104.56;4995176;28;45403;-39
2024/01/31 03:09:01;;;;;;;;;10.67;10.33;;;;;9.66;58.71;103114.63;4994406;28;45336;-39
2024/01/31 03:11:26;;;;;;;;;10.00;10.00;;;;;9.69;58.78;103122.44;4995324;28;46561;-39
2024/01/31 03:13:52;;;;;;;;;14.33;10.00;;;;;9.70;58.28;103117.97;4995114;28;45827;-39
2024/01/31 03:16:17;;;;;;;;;11.00;7.00;;;;;9.72;58.10;103122.25;4995327;28;45361;-39
2024/01/31 03:18:42;;;;;;;;;9.33;8.67;;;;;9.72;58.28;103118.75;4995520;28;45424;-37
2024/01/31 03:21:08;;;;;;;;;7.67;7.67;;;;;9.78;58.22;103122.88;4994893;28;46293;-38
2024/01/31 03:23:33;;;;;;;;;9.67;8.67;;;;;9.75;58.39;103119.44;4995335;28;45413;-40
2024/01/31 03:25:58;;;;;;;;;6.00;6.00;;;;;9.73;57.79;103109.81;5010484;28;45391;-39
2024/01/31 03:28:24;;;;;;;;;7.67;5.67;;;;;9.73;58.05;103120.44;4995146;28;45311;-38
2024/01/31 03:30:49;;;;;;;;;7.00;7.00;;;;;9.78;58.20;103123.75;4995058;28;45817;-38
2024/01/31 03:33:14;;;;;;;;;7.33;7.00;;;;;9.78;57.98;103126.41;4995161;28;45300;-39
2024/01/31 03:35:40;;;;;;;;;9.33;6.67;;;;;9.80;58.05;103128.97;4995330;28;45493;-39
2024/01/31 03:38:05;;;;;;;;;6.33;3.00;;;;;9.81;57.75;103123.56;4995245;28;45354;-38
2024/01/31 03:40:31;;;;;;;;;7.00;7.00;;;;;9.79;57.68;103120.13;4995070;28;45519;-37
2024/01/31 03:42:56;;;;;;;;;8.00;7.00;;;;;9.80;57.55;103126.31;4994993;28;45432;-39
2024/01/31 03:45:21;;;;;;;;;5.67;5.33;;;;;9.78;57.82;103120.22;4993922;28;45500;-38
2024/01/31 03:47:47;;;;;;;;;7.67;6.67;;;;;9.77;57.57;103119.34;4994926;28;45515;-39
2024/01/31 03:50:13;;;;;;;;;5.67;5.33;;;;;9.73;57.72;103118.69;4994512;28;45459;-39
2024/01/31 03:52:38;;;;;;;;;8.00;7.67;;;;;9.75;57.81;103119.44;4994818;28;45408;-38
2024/01/31 03:55:04;;;;;;;;;9.67;6.00;;;;;9.75;58.00;103124.75;4994833;28;45369;-39
2024/01/31 03:57:29;;;;;;;;;5.67;5.67;;;;;9.73;57.59;103134.63;4994399;28;45354;-39
2024/01/31 03:59:55;;;;;;;;;8.00;6.67;;;;;9.72;57.53;103130.22;4994789;28;46107;-40
2024/01/31 04:02:22;;;;;;;;;8.00;6.00;;;;;9.72;57.81;103129.38;4994686;28;45472;-39
2024/01/31 04:04:47;;;;;;;;;11.00;7.67;;;;;9.72;57.45;103132.03;4994574;28;45436;-37
2024/01/31 04:07:12;;;;;;;;;9.33;9.33;;;;;9.75;57.46;103143.38;4994806;28;45345;-38
2024/01/31 04:09:38;;;;;;;;;6.67;5.33;;;;;9.66;57.04;103133.22;4994293;28;46315;-39
2024/01/31 04:12:04;;;;;;;;;8.00;6.00;;;;;9.77;57.13;103151.25;4994559;28;45333;-39
2024/01/31 04:14:29;;;;;;;;;3.67;3.67;;;;;9.78;57.46;103146.81;4994718;28;45520;-40
2024/01/31 04:16:54;;;;;;;;;6.33;6.33;;;;;9.75;57.05;103145.16;4994875;28;45257;-40
2024/01/31 04:19:19;;;;;;;;;6.67;5.33;;;;;9.73;56.95;103144.38;4994316;28;48051;-37
2024/01/31 04:21:45;;;;;;;;;6.00;6.00;;;;;9.75;57.04;103147.81;4994512;28;45547;-40
2024/01/31 04:24:10;;;;;;;;;7.67;6.67;;;;;9.74;56.92;103143.44;4994659;28;45839;-39
2024/01/31 04:26:42;;;;;;;;;7.00;7.00;;;;;9.71;56.29;103141.81;4994601;28;45402;-38
2024/01/31 04:29:07;;;;;;;;;6.00;4.33;;;;;9.70;56.62;103145.41;4994164;28;46185;-38
2024/01/31 04:31:33;;;;;;;;;10.33;6.33;;;;;9.69;56.57;103140.16;4994174;28;45450;-39
2024/01/31 04:33:59;;;;;;;;;5.67;5.67;;;;;9.66;56.40;103130.56;4994495;28;45438;-38
2024/01/31 04:36:24;;;;;;;;;6.33;5.33;;;;;9.66;56.56;103140.34;4994775;28;45260;-38
2024/01/31 04:38:50;;;;;;;;;6.00;6.00;;;;;9.57;56.53;103125.75;4993968;28;45462;-39
2024/01/31 04:41:16;;;;;;;;;5.00;4.33;;;;;9.61;56.65;103132.63;4994332;28;45244;-38
2024/01/31 04:43:42;;;;;;;;;6.33;5.67;;;;;9.64;56.01;103139.56;4992854;28;45450;-39
2024/01/31 04:46:07;;;;;;;;;5.33;5.00;;;;;9.62;56.42;103141.44;4994211;28;45409;-39
2024/01/31 04:48:32;;;;;;;;;5.00;5.00;;;;;9.61;55.77;103143.25;4994056;28;46143;-37
2024/01/31 04:50:57;;;;;;;;;8.00;5.00;;;;;9.64;56.56;103152.84;4993734;28;45326;-39
2024/01/31 04:53:23;;;;;;;;;7.00;5.00;;;;;9.63;56.33;103137.84;4994266;28;45356;-40
2024/01/31 04:55:48;;;;;;;;;6.00;4.33;;;;;9.61;55.92;103129.97;4994232;28;45346;-40
2024/01/31 04:58:13;;;;;;;;;7.00;3.00;;;;;9.62;55.91;103136.13;4993839;28;47459;-39
2024/01/31 05:00:39;;;;;;;;;5.33;5.00;;;;;9.61;56.42;103131.78;4993818;28;45356;-39
2024/01/31 05:03:04;;;;;;;;;9.33;6.00;;;;;9.61;56.35;103129.09;4994096;28;45701;-38
2024/01/31 05:05:29;;;;;;;;;5.33;5.33;;;;;9.60;56.57;103119.41;4992717;28;45392;-40
2024/01/31 05:07:55;;;;;;;;;6.33;6.33;;;;;9.55;55.89;103121.44;4993691;28;46172;-39
2024/01/31 05:10:20;;;;;;;;;3.33;3.33;;;;;9.50;56.50;103108.41;4992585;28;45425;-38
2024/01/31 05:12:45;;;;;;;;;5.00;5.00;;;;;9.57;56.21;103112.47;4994126;28;45294;-36
2024/01/31 05:15:11;;;;;;;;;7.00;5.00;;;;;9.54;56.11;103109.97;4994029;28;45282;-39
2024/01/31 05:17:36;;;;;;;;;7.67;6.00;;;;;9.48;57.01;103110.28;5008840;28;47219;-39
2024/01/31 05:20:02;;;;;;;;;7.67;5.00;;;;;9.50;56.37;103113.72;4993515;28;45451;-39
2024/01/31 05:22:28;;;;;;;;;9.33;7.00;;;;;9.49;56.45;103114.69;4993126;28;45461;-39
2024/01/31 05:24:53;;;;;;;;;7.67;6.67;;;;;9.42;56.97;103095.53;4993787;28;45426;-37
2024/01/31 05:27:18;;;;;;;;;8.33;6.00;;;;;9.38;56.91;103101.94;5008373;28;47221;-39
2024/01/31 05:29:43;;;;;;;;;7.00;6.67;;;;;9.35;56.88;103107.41;4993528;28;45385;-37
2024/01/31 05:32:09;;;;;;;;;7.33;7.00;;;;;9.35;57.36;103104.75;4992347;28;45382;-38
2024/01/31 05:34:34;;;;;;;;;7.00;7.00;;;;;9.34;57.35;103104.84;4993686;28;45399;-38
2024/01/31 05:37:00;;;;;;;;;6.00;6.00;;;;;9.32;57.77;103110.25;4993148;28;46046;-39
2024/01/31 05:39:25;;;;;;;;;7.00;7.00;;;;;9.23;58.08;103098.31;4992640;28;45197;-38
2024/01/31 05:41:50;;;;;;;;;8.67;6.00;;;;;9.24;58.16;103108.00;4992917;28;45349;-39
2024/01/31 05:44:16;;;;;;;;;5.33;5.33;;;;;9.23;58.25;103111.59;4993020;28;45288;-38
2024/01/31 05:46:44;;;;;;;;;13.67;6.33;;;;;9.26;58.83;103107.91;4992589;28;45286;-36
2024/01/31 05:49:09;;;;;;;;;6.67;6.67;;;;;9.21;58.39;103094.88;4992306;28;45475;-39
2024/01/31 05:51:34;;;;;;;;;6.67;6.67;;;;;9.29;58.28;103094.47;4992186;28;45514;-38
2024/01/31 05:54:00;;;;;;;;;12.00;7.67;;;;;9.27;58.05;103095.47;4992612;28;45339;-38
2024/01/31 05:56:25;;;;;;;;;10.33;4.33;;;;;9.24;59.07;103100.03;4992475;28;47058;-39
2024/01/31 05:58:50;;;;;;;;;9.00;9.00;;;;;9.23;58.97;103095.66;4993139;28;45495;-38
2024/01/31 06:01:16;;;;;;;;;8.67;5.67;;;;;9.21;59.10;103096.66;4993032;28;45433;-39
2024/01/31 06:03:41;;;;;;;;;10.33;8.33;;;;;9.18;58.68;103096.81;4991828;28;45428;-39
2024/01/31 06:06:06;;;;;;;;;10.67;7.67;;;;;9.13;58.80;103089.09;4992764;28;45469;-38
2024/01/31 06:08:35;;;;;;;;;9.33;8.00;;;;;9.06;59.59;103077.09;4992632;28;45280;-39
2024/01/31 06:11:08;;;;;;;;;13.00;10.00;;;;;9.07;59.73;103080.59;4992974;28;45447;-39
2024/01/31 06:13:34;;;;;;;;;14.33;8.00;;;;;9.06;59.90;103081.53;4993016;28;45520;-39
2024/01/31 06:15:59;;;;;;;;;6.00;6.00;;;;;9.03;59.39;103084.34;4992527;28;46511;-40
2024/01/31 06:18:25;;;;;;;;;8.33;5.67;;;;;8.99;59.43;103081.84;4992835;28;45524;-37
2024/01/31 06:20:50;;;;;;;;;11.67;9.33;;;;;8.95;59.83;103076.78;4993262;28;45302;-39
2024/01/31 06:23:16;;;;;;;;;8.67;8.67;;;;;8.89;60.00;103077.09;4996127;28;45443;-40
2024/01/31 06:25:42;;;;;;;;;11.67;10.33;;;;;8.75;60.32;103060.06;4995659;28;46275;-39
2024/01/31 06:28:08;;;;;;;;;2.00;2.00;;;;;8.77;59.78;103065.31;4995534;28;45424;-39
2024/01/31 06:30:41;;;;;;;;;8.33;6.67;;;;;8.65;60.56;103068.59;4996085;28;45436;-39
2024/01/31 06:33:10;;;;;;;;;6.67;6.67;;;;;8.60;60.69;103084.75;4996132;28;45486;-39
2024/01/31 06:35:38;;;;;;;;;11.00;10.00;;;;;8.54;60.55;103069.13;4995568;28;46883;-39
2024/01/31 06:38:03;;;;;;;;;6.33;6.00;;;;;8.53;61.07;103067.41;4995370;28;45365;-39
2024/01/31 06:40:30;;;;;;;;;12.33;10.67;;;;;8.48;61.22;103074.75;4994577;28;45501;-39
2024/01/31 06:42:56;;;;;;;;;11.67;9.00;;;;;8.33;61.66;103073.66;4995986;28;45391;-39
2024/01/31 06:45:24;;;;;;;;;11.00;10.67;;;;;8.31;61.10;103067.56;4995460;28;47137;-40
2024/01/31 06:47:50;;;;;;;;;11.00;10.67;;;;;8.33;61.09;103072.78;4995466;28;45296;-40
2024/01/31 06:50:15;;;;;;;;;16.00;10.67;;;;;8.25;62.35;103079.31;4995364;28;45429;-38
2024/01/31 06:52:41;;;;;;;;;19.00;13.00;;;;;8.17;61.76;103072.69;4995702;28;45574;-40
2024/01/31 06:55:06;;;;;;;;;14.33;11.33;;;;;8.18;61.95;103069.13;4995472;28;46465;-40
2024/01/31 06:57:33;;;;;;;;;16.33;14.33;;;;;8.16;62.16;103063.88;4995390;28;45439;-39
2024/01/31 06:59:59;;;;;;;;;13.25;12.25;;;;;8.19;62.88;103073.47;4995680;28;45368;-38
2024/01/31 07:02:25;;;;;;;;;19.75;13.25;;;;;8.15;63.05;103079.84;4995603;28;45302;-39
2024/01/31 07:04:51;;;;;;;;;15.50;13.00;;;;;8.13;62.81;103084.34;4995223;28;45921;-39
2024/01/31 07:07:16;;;;;;;;;15.25;12.50;;;;;8.09;63.39;103080.13;4995032;28;45446;-39
2024/01/31 07:09:41;;;;;;;;;21.00;14.00;;;;;8.08;63.64;103078.41;4993933;28;46665;-40
2024/01/31 07:12:07;;;;;;;;;14.00;11.75;;;;;8.04;63.58;103084.81;4995453;28;45276;-40
2024/01/31 07:14:32;;;;;;;;;16.75;13.25;;;;;8.01;63.37;103091.13;4995065;27;45977;-40
2024/01/31 07:16:58;;;;;;;;;11.00;10.00;;;;;8.03;63.91;103091.03;4995452;28;45294;-41
2024/01/31 07:19:23;;;;;;;;;15.00;13.00;;;;;8.05;64.11;103089.16;4995399;28;45342;-38
2024/01/31 07:21:48;;;;;;;;;18.00;14.00;;;;;8.05;63.21;103089.16;4993780;28;45563;-38
2024/01/31 07:24:14;;;;;;;;;13.00;9.00;;;;;8.06;63.24;103083.81;4995078;28;46167;-39
2024/01/31 07:26:39;;;;;;;;;13.50;10.00;;;;;8.11;63.20;103092.41;4995044;28;45389;-40
2024/01/31 07:29:08;;;;;;;;;17.00;12.50;;;;;8.11;63.75;103091.53;4995238;28;45296;-39
2024/01/31 07:31:33;;;;;;;;;14.25;11.50;;;;;8.07;63.48;103090.81;4995293;28;45312;-39
2024/01/31 07:33:59;;;;;;;;;15.50;14.50;;;;;8.16;64.35;103116.03;4993742;28;45404;-40
2024/01/31 07:36:24;;;;;;;;;16.25;12.00;;;;;8.19;63.88;103105.28;4995043;28;45295;-40
2024/01/31 07:38:49;;;;;;;;;11.25;7.25;;;;;8.26;63.27;103106.72;4995006;28;45552;-39
2024/01/31 07:41:15;;;;;;;;;16.25;12.75;;;;;8.30;63.52;103113.59;4995187;28;45263;-39
2024/01/31 07:43:41;;;;;;;;;14.00;10.75;;;;;8.23;63.40;103101.56;4994247;28;45456;-39
2024/01/31 07:46:06;;;;;;;;;21.25;14.50;;;;;8.28;63.20;103101.34;4994996;28;45255;-38
2024/01/31 07:48:32;;;;;;;;;15.50;14.25;;;;;8.40;64.29;103122.84;4994787;28;45387;-40
2024/01/31 07:51:01;;;;;;;;;15.00;14.25;;;;;8.45;63.35;103117.31;4994951;28;45381;-39
2024/01/31 07:53:27;;;;;;;;;15.50;13.75;;;;;8.51;63.21;103127.63;4994686;28;46563;-39
2024/01/31 07:55:52;;;;;;;;;15.25;11.25;;;;;8.57;63.97;103126.47;4993511;28;45502;-39
2024/01/31 07:58:17;;;;;;;;;11.25;8.25;;;;;8.64;63.75;103120.81;4994713;28;45407;-37
2024/01/31 08:00:43;;;;;;;;;18.00;16.25;;;;;8.68;62.55;103125.03;4995032;28;45438;-39
2024/01/31 08:03:08;;;;;;;;;15.75;12.25;;;;;8.73;62.43;103122.13;4994395;28;46609;-39
2024/01/31 08:05:33;;;;;;;;;14.00;10.00;;;;;8.78;62.54;103121.91;4994433;28;45429;-39
2024/01/31 08:07:59;;;;;;;;;10.00;10.00;;;;;8.78;62.29;103108.63;4993193;28;45379;-39
2024/01/31 08:10:24;;;;;;;;;15.50;13.75;;;;;8.75;62.85;103097.22;5010137;28;45328;-38
2024/01/31 08:12:50;;;;;;;;;15.33;15.00;;;;;8.73;63.00;103087.63;4994352;28;47013;-39
2024/01/31 08:15:16;;;;;;;;;18.00;14.75;;;;;8.75;62.83;103094.56;4994411;28;45337;-39
2024/01/31 08:17:41;;;;;;;;;20.25;16.25;;;;;8.79;62.85;103097.06;4996063;28;45425;-38
2024/01/31 08:20:09;;;;;;;;;19.25;16.50;;;;;8.75;62.75;103085.75;4994694;28;45165;-39
2024/01/31 08:22:34;;;;;;;;;19.50;16.75;;;;;8.84;62.89;103095.91;4994261;28;45466;-39
2024/01/31 08:24:59;;;;;;;;;25.50;16.25;;;;;8.87;63.18;103101.06;4994277;28;45361;-39
2024/01/31 08:27:25;;;;;;;;;22.75;14.50;;;;;8.88;63.41;103094.81;4994363;28;45362;-39
2024/01/31 08:29:51;;;;;;;;;15.33;15.00;;;;;8.91;63.24;103091.16;4994571;28;45355;-40
2024/01/31 08:32:17;;;;;;;;;17.25;15.75;;;;;8.94;63.38;103099.81;4994395;28;45370;-39
2024/01/31 08:34:42;;;;;;;;;17.00;12.00;;;;;9.00;63.55;103107.44;4994272;28;45255;-39
2024/01/31 08:37:08;;;;;;;;;16.75;14.50;;;;;9.03;62.64;103098.50;4994454;28;45409;-40
2024/01/31 08:39:33;;;;;;;;;18.75;16.75;;;;;9.05;63.38;103093.94;4994297;28;45386;-39
2024/01/31 08:41:58;;;;;;;;;20.75;18.25;;;;;9.04;63.50;103092.22;4994227;28;46739;-40
2024/01/31 08:44:24;;;;;;;;;16.00;14.67;;;;;9.13;63.15;103109.47;4994118;28;45325;-40
2024/01/31 08:46:49;;;;;;;;;21.25;15.25;;;;;9.09;63.95;103098.16;4994470;28;45401;-40
2024/01/31 08:49:14;;;;;;;;;19.33;14.00;;;;;9.21;63.42;103110.81;4994213;28;45496;-38
2024/01/31 08:51:40;;;;;;;;;21.00;14.25;;;;;9.25;63.85;103111.50;4993777;28;45335;-37
2024/01/31 08:54:06;;;;;;;;;13.00;7.00;;;;;9.29;63.54;103102.44;4994039;28;45329;-39
2024/01/31 08:56:32;;;;;;;;;19.00;15.00;;;;;9.20;64.18;103085.19;4994236;28;45513;-39
2024/01/31 08:58:58;;;;;;;;;12.33;11.67;;;;;9.36;63.69;103105.66;4994431;28;45268;-40
2024/01/31 09:01:23;;;;;;;;;20.33;15.00;;;;;9.33;64.44;103105.78;4993908;28;46203;-40
2024/01/31 09:03:50;;;;;;;;;15.33;15.33;;;;;9.38;64.87;103117.88;4993750;28;45411;-39
2024/01/31 09:06:15;;;;;;;;;14.33;11.00;;;;;9.43;64.11;103114.97;4992636;28;45217;-39
2024/01/31 09:08:40;;;;;;;;;15.33;12.00;;;;;9.67;64.55;103126.13;4993989;28;45431;-39
2024/01/31 09:11:05;;;;;;;;;16.00;15.00;;;;;9.71;64.55;103115.22;4993927;28;47257;-40
2024/01/31 09:13:31;;;;;;;;;11.33;6.67;;;;;9.99;64.45;103138.53;5008970;28;45356;-39
2024/01/31 09:15:56;;;;;;;;;12.00;12.00;;;;;10.31;63.98;103133.22;4994136;28;45352;-39
2024/01/31 09:18:22;;;;;;;;;12.67;11.67;;;;;10.69;62.87;103125.69;4994322;28;45363;-39
2024/01/31 09:20:47;;;;;;;;;15.33;13.00;;;;;11.15;62.47;103125.66;4993693;28;45392;-40
2024/01/31 09:23:12;;;;;;;;;14.33;13.33;;;;;11.51;61.26;103120.88;4993475;28;45398;-40
2024/01/31 09:25:38;;;;;;;;;17.67;15.00;;;;;11.80;61.24;103111.91;4993751;28;45398;-38
2024/01/31 09:28:03;;;;;;;;;12.67;10.67;;;;;12.03;60.53;103117.59;4993934;28;45386;-40
2024/01/31 09:30:29;;;;;;;;;14.67;10.00;;;;;12.92;59.31;103124.13;4993546;28;45969;-40
2024/01/31 09:32:54;;;;;;;;;13.33;12.00;;;;;14.43;57.77;103119.72;4993523;28;45242;-39
2024/01/31 09:35:19;;;;;;;;;13.67;10.33;;;;;14.30;56.23;103103.69;4993813;28;45369;-39
2024/01/31 09:37:45;;;;;;;;;12.67;12.67;;;;;14.37;55.62;103101.44;4993658;28;45384;-39
2024/01/31 09:40:15;;;;;;;;;12.67;11.00;;;;;14.15;56.44;103097.63;4993122;28;46245;-40
2024/01/31 09:42:41;;;;;;;;;15.67;12.00;;;;;14.09;55.92;103092.75;4993314;28;45353;-39
2024/01/31 09:45:08;;;;;;;;;13.00;13.00;;;;;15.76;53.87;103084.44;4993343;28;45498;-39
2024/01/31 09:47:38;;;;;;;;;8.00;4.33;;;;;17.53;50.40;103074.88;4993565;28;45478;-39
2024/01/31 09:50:04;;;;;;;;;12.00;12.00;;;;;18.58;46.61;103069.81;4992990;28;46351;-39
2024/01/31 09:52:35;;;;;;;;;13.00;12.00;;;;;19.54;45.36;103065.19;4993201;28;45342;-39
2024/01/31 09:55:04;;;;;;;;;13.33;10.67;;;;;19.78;45.15;103063.81;4993305;28;45496;-39
2024/01/31 09:57:30;;;;;;;;;15.00;12.67;;;;;18.98;44.71;103068.78;4995947;28;45353;-37
2024/01/31 09:59:56;;;;;;;;;15.33;12.67;;;;;18.77;45.40;103057.34;4996226;28;45437;-40
2024/01/31 10:02:22;;;;;;;;;13.00;12.67;;;;;18.04;46.24;103060.44;4996208;28;45379;-40
2024/01/31 10:04:49;;;;;;;;;18.00;10.00;;;;;18.03;48.19;103068.63;4996515;28;45400;-40
2024/01/31 10:07:24;;;;;;;;;16.00;13.67;;;;;16.87;49.31;103069.81;5081950;27;45453;-39
2024/01/31 10:09:54;;;;;;;;;12.33;10.67;;;;;16.50;50.35;103072.06;4995886;28;45397;-39
2024/01/31 10:12:20;;;;;;;;;15.00;15.00;;;;;16.35;50.46;103058.09;4996094;28;45337;-39
2024/01/31 10:14:48;;;;;;;;;12.33;12.00;;;;;16.40;50.75;103057.72;4996266;28;45543;-39
2024/01/31 10:17:14;;;;;;;;;14.00;12.67;;;;;16.81;49.88;103061.41;4996328;28;45442;-39
2024/01/31 10:19:39;;;;;;;;;15.67;13.67;;;;;16.75;50.19;103052.06;4995576;28;47148;-38
2024/01/31 10:22:05;;;;;;;;;19.67;14.67;;;;;16.62;50.00;103041.47;4995860;28;45363;-39
2024/01/31 10:24:31;;;;;;;;;13.00;12.00;;;;;16.33;50.78;103054.66;4996035;28;45256;-39
2024/01/31 10:26:57;;;;;;;;;20.33;15.00;;;;;17.03;50.02;103044.31;4996340;28;45375;-39
2024/01/31 10:29:23;;;;;;;;;17.33;15.67;;;;;18.54;47.62;103043.28;4995799;28;45162;-39
2024/01/31 10:31:50;;;;;;;;;22.00;16.67;;;;;18.43;46.55;103037.06;4995790;28;45372;-39
2024/01/31 10:34:16;;;;;;;;;17.00;14.67;;;;;16.94;49.06;103035.22;4995822;28;45353;-39
2024/01/31 10:36:43;;;;;;;;;19.33;17.67;;;;;15.98;51.20;103046.00;4996183;28;45334;-39
2024/01/31 10:39:11;;;;;;;;;29.33;22.33;;;;;15.30;52.80;103045.19;4995497;28;45389;-38
2024/01/31 10:41:43;;;;;;;;;22.00;19.00;;;;;14.98;54.15;103029.81;4995848;28;45319;-39
2024/01/31 10:44:13;;;;;;;;;17.00;17.00;;;;;14.63;54.89;103040.59;4995824;28;45369;-39
2024/01/31 10:46:39;;;;;;;;;20.67;18.00;;;;;14.17;55.71;103033.31;4995839;28;45644;-39
2024/01/31 10:49:05;;;;;;;;;18.00;17.00;;;;;13.90;56.79;103041.53;4995419;28;47034;-40
2024/01/31 10:51:33;;;;;;;;;13.00;12.33;;;;;13.67;57.23;103036.03;4995519;28;45307;-39
2024/01/31 10:54:00;;;;;;;;;12.67;11.00;;;;;13.48;58.59;103038.31;4995450;28;46064;-40
2024/01/31 10:56:26;;;;;;;;;16.00;11.00;;;;;13.00;59.27;103000.72;4995836;28;45409;-40
2024/01/31 10:58:51;;;;;;;;;15.00;13.00;;;;;13.12;60.18;103039.09;4995470;28;46375;-40
2024/01/31 11:01:17;;;;;;;;;14.33;12.67;;;;;12.85;60.11;103029.38;4995649;28;45307;-40
2024/01/31 11:03:46;;;;;;;;;21.67;14.67;;;;;12.58;62.35;103031.22;4995649;28;45310;-37
2024/01/31 11:06:11;;;;;;;;;20.67;15.00;;;;;12.43;62.76;103035.78;4995921;28;45373;-39
2024/01/31 11:08:40;;;;;;;;;18.67;13.33;;;;;12.35;62.19;103030.97;4993991;28;46114;-39
2024/01/31 11:11:11;;;;;;;;;11.00;10.00;;;;;12.30;63.28;103024.22;4995338;28;45514;-39
2024/01/31 11:13:37;;;;;;;;;15.00;9.67;;;;;12.26;63.32;103025.38;4995415;28;45460;-39
2024/01/31 11:16:03;;;;;;;;;13.00;9.00;;;;;12.14;62.89;103033.25;4995693;28;45328;-40